sensor_id;sensor_type;location;lat;lon;timestamp;P1;durP1;ratioP1;P2;durP2;ratioP2
53391;SDS011;41667;51.922;8.850;2023-07-29T00:01:19;1.27;;;1.27;;
53391;SDS011;41667;51.922;8.850;2023-07-29T00:03:45;1.20;;;1.10;;
53391;SDS011;41667;51.922;8.850;2023-07-29T00:06:10;2.75;;;1.35;;
53391;SDS011;41667;51.922;8.850;2023-07-29T00:08:35;1.87;;;1.13;;
53391;SDS011;41667;51.922;8.850;2023-07-29T00:11:00;4.17;;;1.40;;
53391;SDS011;41667;51.922;8.850;2023-07-29T00:13:26;1.63;;;1.50;;
53391;SDS011;41667;51.922;8.850;2023-07-29T00:15:53;1.03;;;1.00;;
53391;SDS011;41667;51.922;8.850;2023-07-29T00:18:19;1.60;;;1.50;;
53391;SDS011;41667;51.922;8.850;2023-07-29T00:20:44;1.50;;;1.00;;
53391;SDS011;41667;51.922;8.850;2023-07-29T00:23:09;2.42;;;1.63;;
53391;SDS011;41667;51.922;8.850;2023-07-29T00:25:34;1.43;;;1.33;;
53391;SDS011;41667;51.922;8.850;2023-07-29T00:27:59;2.08;;;1.30;;
53391;SDS011;41667;51.922;8.850;2023-07-29T00:30:24;1.53;;;1.37;;
53391;SDS011;41667;51.922;8.850;2023-07-29T00:32:49;1.20;;;1.13;;
53391;SDS011;41667;51.922;8.850;2023-07-29T00:35:15;1.52;;;1.42;;
53391;SDS011;41667;51.922;8.850;2023-07-29T00:37:40;2.10;;;1.48;;
53391;SDS011;41667;51.922;8.850;2023-07-29T00:40:09;3.90;;;1.57;;
53391;SDS011;41667;51.922;8.850;2023-07-29T00:42:37;1.80;;;1.70;;
53391;SDS011;41667;51.922;8.850;2023-07-29T00:45:02;4.63;;;1.20;;
53391;SDS011;41667;51.922;8.850;2023-07-29T00:47:27;2.72;;;1.38;;
53391;SDS011;41667;51.922;8.850;2023-07-29T00:49:53;2.07;;;1.80;;
53391;SDS011;41667;51.922;8.850;2023-07-29T00:52:18;1.73;;;1.63;;
53391;SDS011;41667;51.922;8.850;2023-07-29T00:54:43;1.93;;;1.43;;
53391;SDS011;41667;51.922;8.850;2023-07-29T00:57:08;1.53;;;1.43;;
53391;SDS011;41667;51.922;8.850;2023-07-29T00:59:35;1.35;;;1.27;;
53391;SDS011;41667;51.922;8.850;2023-07-29T01:02:00;1.50;;;1.40;;
53391;SDS011;41667;51.922;8.850;2023-07-29T01:04:25;1.75;;;1.52;;
53391;SDS011;41667;51.922;8.850;2023-07-29T01:06:53;1.25;;;1.20;;
53391;SDS011;41667;51.922;8.850;2023-07-29T01:09:25;1.20;;;1.10;;
53391;SDS011;41667;51.922;8.850;2023-07-29T01:16:55;1.40;;;1.30;;
53391;SDS011;41667;51.922;8.850;2023-07-29T01:22:05;1.25;;;1.15;;
53391;SDS011;41667;51.922;8.850;2023-07-29T01:24:32;1.58;;;1.48;;
53391;SDS011;41667;51.922;8.850;2023-07-29T01:26:57;1.58;;;1.48;;
53391;SDS011;41667;51.922;8.850;2023-07-29T01:29:23;3.13;;;1.17;;
53391;SDS011;41667;51.922;8.850;2023-07-29T01:31:48;2.05;;;1.52;;
53391;SDS011;41667;51.922;8.850;2023-07-29T01:34:22;1.35;;;1.35;;
53391;SDS011;41667;51.922;8.850;2023-07-29T01:36:50;1.80;;;1.33;;
53391;SDS011;41667;51.922;8.850;2023-07-29T01:39:16;1.17;;;1.17;;
53391;SDS011;41667;51.922;8.850;2023-07-29T01:41:42;1.95;;;0.98;;
53391;SDS011;41667;51.922;8.850;2023-07-29T01:44:08;1.83;;;1.02;;
53391;SDS011;41667;51.922;8.850;2023-07-29T01:46:34;1.20;;;1.10;;
53391;SDS011;41667;51.922;8.850;2023-07-29T01:48:59;1.20;;;1.20;;
53391;SDS011;41667;51.922;8.850;2023-07-29T01:51:24;1.90;;;1.52;;
53391;SDS011;41667;51.922;8.850;2023-07-29T01:53:49;1.20;;;1.20;;
53391;SDS011;41667;51.922;8.850;2023-07-29T01:56:15;2.07;;;1.23;;
53391;SDS011;41667;51.922;8.850;2023-07-29T01:58:40;1.75;;;1.20;;
53391;SDS011;41667;51.922;8.850;2023-07-29T02:01:05;1.17;;;1.13;;
53391;SDS011;41667;51.922;8.850;2023-07-29T02:03:30;1.25;;;1.20;;
53391;SDS011;41667;51.922;8.850;2023-07-29T02:05:55;2.13;;;1.23;;
53391;SDS011;41667;51.922;8.850;2023-07-29T02:08:20;1.67;;;1.57;;
53391;SDS011;41667;51.922;8.850;2023-07-29T02:10:45;1.23;;;1.23;;
53391;SDS011;41667;51.922;8.850;2023-07-29T02:13:11;2.38;;;1.50;;
53391;SDS011;41667;51.922;8.850;2023-07-29T02:15:36;1.48;;;1.40;;
53391;SDS011;41667;51.922;8.850;2023-07-29T02:18:01;1.27;;;1.17;;
53391;SDS011;41667;51.922;8.850;2023-07-29T02:20:28;4.95;;;1.48;;
53391;SDS011;41667;51.922;8.850;2023-07-29T02:22:53;1.87;;;1.33;;
53391;SDS011;41667;51.922;8.850;2023-07-29T02:25:18;2.43;;;1.30;;
53391;SDS011;41667;51.922;8.850;2023-07-29T02:27:43;1.52;;;1.42;;
53391;SDS011;41667;51.922;8.850;2023-07-29T02:30:09;1.90;;;1.63;;
53391;SDS011;41667;51.922;8.850;2023-07-29T02:32:37;1.30;;;1.20;;
53391;SDS011;41667;51.922;8.850;2023-07-29T02:35:02;1.42;;;1.33;;
53391;SDS011;41667;51.922;8.850;2023-07-29T02:37:28;2.33;;;1.88;;
53391;SDS011;41667;51.922;8.850;2023-07-29T02:39:53;2.88;;;1.30;;
53391;SDS011;41667;51.922;8.850;2023-07-29T02:42:18;1.60;;;1.50;;
53391;SDS011;41667;51.922;8.850;2023-07-29T02:44:43;1.60;;;1.45;;
53391;SDS011;41667;51.922;8.850;2023-07-29T02:47:08;1.40;;;1.30;;
53391;SDS011;41667;51.922;8.850;2023-07-29T02:49:33;3.15;;;1.55;;
53391;SDS011;41667;51.922;8.850;2023-07-29T02:51:59;3.42;;;1.80;;
53391;SDS011;41667;51.922;8.850;2023-07-29T02:54:24;2.33;;;1.63;;
53391;SDS011;41667;51.922;8.850;2023-07-29T02:56:50;2.83;;;1.40;;
53391;SDS011;41667;51.922;8.850;2023-07-29T02:59:15;4.50;;;1.98;;
53391;SDS011;41667;51.922;8.850;2023-07-29T03:01:40;2.60;;;2.17;;
53391;SDS011;41667;51.922;8.850;2023-07-29T03:04:05;2.47;;;1.48;;
53391;SDS011;41667;51.922;8.850;2023-07-29T03:06:31;2.08;;;1.70;;
53391;SDS011;41667;51.922;8.850;2023-07-29T03:08:56;3.15;;;1.70;;
53391;SDS011;41667;51.922;8.850;2023-07-29T03:11:21;2.20;;;2.00;;
53391;SDS011;41667;51.922;8.850;2023-07-29T03:13:46;2.05;;;1.95;;
53391;SDS011;41667;51.922;8.850;2023-07-29T03:16:15;1.73;;;1.63;;
53391;SDS011;41667;51.922;8.850;2023-07-29T03:18:41;1.73;;;1.63;;
53391;SDS011;41667;51.922;8.850;2023-07-29T03:21:06;2.05;;;1.90;;
53391;SDS011;41667;51.922;8.850;2023-07-29T03:23:32;1.63;;;1.52;;
53391;SDS011;41667;51.922;8.850;2023-07-29T03:25:58;2.08;;;1.88;;
53391;SDS011;41667;51.922;8.850;2023-07-29T03:28:26;2.75;;;2.03;;
53391;SDS011;41667;51.922;8.850;2023-07-29T03:30:57;2.03;;;1.88;;
53391;SDS011;41667;51.922;8.850;2023-07-29T03:33:22;1.60;;;1.50;;
53391;SDS011;41667;51.922;8.850;2023-07-29T03:35:48;2.22;;;2.03;;
53391;SDS011;41667;51.922;8.850;2023-07-29T03:38:13;2.38;;;2.17;;
53391;SDS011;41667;51.922;8.850;2023-07-29T03:40:39;1.75;;;1.65;;
53391;SDS011;41667;51.922;8.850;2023-07-29T03:43:04;2.28;;;2.08;;
53391;SDS011;41667;51.922;8.850;2023-07-29T03:45:30;1.93;;;1.80;;
53391;SDS011;41667;51.922;8.850;2023-07-29T03:47:55;3.22;;;1.98;;
53391;SDS011;41667;51.922;8.850;2023-07-29T03:50:20;3.13;;;1.95;;
53391;SDS011;41667;51.922;8.850;2023-07-29T03:52:45;1.73;;;1.63;;
53391;SDS011;41667;51.922;8.850;2023-07-29T03:55:10;2.87;;;2.57;;
53391;SDS011;41667;51.922;8.850;2023-07-29T03:57:35;2.55;;;2.30;;
53391;SDS011;41667;51.922;8.850;2023-07-29T04:00:01;2.53;;;2.25;;
53391;SDS011;41667;51.922;8.850;2023-07-29T04:02:26;3.70;;;1.97;;
53391;SDS011;41667;51.922;8.850;2023-07-29T04:04:51;6.18;;;2.03;;
53391;SDS011;41667;51.922;8.850;2023-07-29T04:07:16;5.20;;;2.03;;
53391;SDS011;41667;51.922;8.850;2023-07-29T04:09:42;3.35;;;1.83;;
53391;SDS011;41667;51.922;8.850;2023-07-29T04:12:08;2.55;;;2.00;;
53391;SDS011;41667;51.922;8.850;2023-07-29T04:14:33;1.75;;;1.60;;
53391;SDS011;41667;51.922;8.850;2023-07-29T04:16:58;1.97;;;1.87;;
53391;SDS011;41667;51.922;8.850;2023-07-29T04:19:24;2.55;;;2.28;;
53391;SDS011;41667;51.922;8.850;2023-07-29T04:21:49;3.05;;;2.20;;
53391;SDS011;41667;51.922;8.850;2023-07-29T04:24:15;3.50;;;2.15;;
53391;SDS011;41667;51.922;8.850;2023-07-29T04:26:40;4.47;;;2.20;;
53391;SDS011;41667;51.922;8.850;2023-07-29T04:29:06;4.60;;;2.33;;
53391;SDS011;41667;51.922;8.850;2023-07-29T04:31:31;1.83;;;1.73;;
53391;SDS011;41667;51.922;8.850;2023-07-29T04:33:56;2.05;;;1.95;;
53391;SDS011;41667;51.922;8.850;2023-07-29T04:36:21;2.42;;;2.25;;
53391;SDS011;41667;51.922;8.850;2023-07-29T04:38:46;2.20;;;2.00;;
53391;SDS011;41667;51.922;8.850;2023-07-29T04:41:11;2.83;;;2.17;;
53391;SDS011;41667;51.922;8.850;2023-07-29T04:43:37;2.13;;;1.95;;
53391;SDS011;41667;51.922;8.850;2023-07-29T04:46:02;2.53;;;1.98;;
53391;SDS011;41667;51.922;8.850;2023-07-29T04:48:28;2.67;;;2.40;;
53391;SDS011;41667;51.922;8.850;2023-07-29T04:50:53;3.28;;;2.10;;
53391;SDS011;41667;51.922;8.850;2023-07-29T04:53:18;2.30;;;2.03;;
53391;SDS011;41667;51.922;8.850;2023-07-29T04:55:43;2.27;;;2.07;;
53391;SDS011;41667;51.922;8.850;2023-07-29T04:58:09;2.20;;;2.00;;
53391;SDS011;41667;51.922;8.850;2023-07-29T05:00:34;2.40;;;2.20;;
53391;SDS011;41667;51.922;8.850;2023-07-29T05:02:59;5.07;;;2.03;;
53391;SDS011;41667;51.922;8.850;2023-07-29T05:05:24;2.35;;;2.15;;
53391;SDS011;41667;51.922;8.850;2023-07-29T05:07:49;3.17;;;1.70;;
53391;SDS011;41667;51.922;8.850;2023-07-29T05:10:15;2.80;;;2.60;;
53391;SDS011;41667;51.922;8.850;2023-07-29T05:12:40;2.37;;;2.17;;
53391;SDS011;41667;51.922;8.850;2023-07-29T05:15:05;4.33;;;2.20;;
53391;SDS011;41667;51.922;8.850;2023-07-29T05:17:30;1.88;;;1.63;;
53391;SDS011;41667;51.922;8.850;2023-07-29T05:19:56;4.50;;;2.30;;
53391;SDS011;41667;51.922;8.850;2023-07-29T05:22:21;3.10;;;1.80;;
53391;SDS011;41667;51.922;8.850;2023-07-29T05:24:46;2.37;;;2.10;;
53391;SDS011;41667;51.922;8.850;2023-07-29T05:27:11;1.77;;;1.67;;
53391;SDS011;41667;51.922;8.850;2023-07-29T05:29:36;1.92;;;1.83;;
53391;SDS011;41667;51.922;8.850;2023-07-29T05:32:01;5.15;;;2.40;;
53391;SDS011;41667;51.922;8.850;2023-07-29T05:34:27;2.47;;;2.27;;
53391;SDS011;41667;51.922;8.850;2023-07-29T05:36:52;6.70;;;2.83;;
53391;SDS011;41667;51.922;8.850;2023-07-29T05:39:17;1.75;;;1.67;;
53391;SDS011;41667;51.922;8.850;2023-07-29T05:41:42;1.67;;;1.58;;
53391;SDS011;41667;51.922;8.850;2023-07-29T05:44:07;5.80;;;2.13;;
53391;SDS011;41667;51.922;8.850;2023-07-29T05:46:32;2.43;;;2.23;;
53391;SDS011;41667;51.922;8.850;2023-07-29T05:48:58;2.87;;;1.90;;
53391;SDS011;41667;51.922;8.850;2023-07-29T05:51:23;1.63;;;1.52;;
53391;SDS011;41667;51.922;8.850;2023-07-29T05:53:48;1.95;;;1.85;;
53391;SDS011;41667;51.922;8.850;2023-07-29T05:56:13;5.13;;;2.42;;
53391;SDS011;41667;51.922;8.850;2023-07-29T05:58:38;1.80;;;1.70;;
53391;SDS011;41667;51.922;8.850;2023-07-29T06:01:03;2.92;;;1.50;;
53391;SDS011;41667;51.922;8.850;2023-07-29T06:03:28;2.33;;;2.10;;
53391;SDS011;41667;51.922;8.850;2023-07-29T06:05:54;2.58;;;1.33;;
53391;SDS011;41667;51.922;8.850;2023-07-29T06:08:19;2.70;;;1.10;;
53391;SDS011;41667;51.922;8.850;2023-07-29T06:10:44;1.35;;;1.25;;
53391;SDS011;41667;51.922;8.850;2023-07-29T06:13:09;1.17;;;1.17;;
53391;SDS011;41667;51.922;8.850;2023-07-29T06:15:34;1.42;;;1.33;;
53391;SDS011;41667;51.922;8.850;2023-07-29T06:18:00;1.50;;;1.40;;
53391;SDS011;41667;51.922;8.850;2023-07-29T06:20:25;1.40;;;1.30;;
53391;SDS011;41667;51.922;8.850;2023-07-29T06:22:50;1.80;;;1.70;;
53391;SDS011;41667;51.922;8.850;2023-07-29T06:25:15;2.67;;;1.77;;
53391;SDS011;41667;51.922;8.850;2023-07-29T06:27:40;2.05;;;1.95;;
53391;SDS011;41667;51.922;8.850;2023-07-29T06:30:05;1.90;;;1.80;;
53391;SDS011;41667;51.922;8.850;2023-07-29T06:32:31;3.13;;;1.40;;
53391;SDS011;41667;51.922;8.850;2023-07-29T06:34:56;1.83;;;1.73;;
53391;SDS011;41667;51.922;8.850;2023-07-29T06:37:21;1.60;;;1.60;;
53391;SDS011;41667;51.922;8.850;2023-07-29T06:39:47;2.25;;;1.80;;
53391;SDS011;41667;51.922;8.850;2023-07-29T06:42:12;2.00;;;1.90;;
53391;SDS011;41667;51.922;8.850;2023-07-29T06:44:37;2.05;;;1.90;;
53391;SDS011;41667;51.922;8.850;2023-07-29T06:47:02;2.00;;;1.80;;
53391;SDS011;41667;51.922;8.850;2023-07-29T06:49:27;2.25;;;2.15;;
53391;SDS011;41667;51.922;8.850;2023-07-29T06:51:53;4.00;;;2.65;;
53391;SDS011;41667;51.922;8.850;2023-07-29T06:54:18;2.85;;;2.22;;
53391;SDS011;41667;51.922;8.850;2023-07-29T06:56:43;2.70;;;2.50;;
53391;SDS011;41667;51.922;8.850;2023-07-29T06:59:08;3.57;;;3.00;;
53391;SDS011;41667;51.922;8.850;2023-07-29T07:01:33;2.73;;;2.53;;
53391;SDS011;41667;51.922;8.850;2023-07-29T07:03:59;3.40;;;3.05;;
53391;SDS011;41667;51.922;8.850;2023-07-29T07:06:24;3.90;;;3.13;;
53391;SDS011;41667;51.922;8.850;2023-07-29T07:08:49;3.17;;;2.90;;
53391;SDS011;41667;51.922;8.850;2023-07-29T07:11:15;3.15;;;2.95;;
53391;SDS011;41667;51.922;8.850;2023-07-29T07:13:40;3.85;;;3.22;;
53391;SDS011;41667;51.922;8.850;2023-07-29T07:16:05;6.77;;;3.70;;
53391;SDS011;41667;51.922;8.850;2023-07-29T07:18:30;4.43;;;3.30;;
53391;SDS011;41667;51.922;8.850;2023-07-29T07:20:55;4.93;;;4.23;;
53391;SDS011;41667;51.922;8.850;2023-07-29T07:23:21;5.40;;;4.90;;
53391;SDS011;41667;51.922;8.850;2023-07-29T07:25:46;5.23;;;4.83;;
53391;SDS011;41667;51.922;8.850;2023-07-29T07:28:11;6.05;;;4.63;;
53391;SDS011;41667;51.922;8.850;2023-07-29T07:30:39;5.93;;;4.90;;
53391;SDS011;41667;51.922;8.850;2023-07-29T07:33:06;6.38;;;4.72;;
53391;SDS011;41667;51.922;8.850;2023-07-29T07:35:31;5.47;;;4.40;;
53391;SDS011;41667;51.922;8.850;2023-07-29T07:37:56;9.45;;;6.07;;
53391;SDS011;41667;51.922;8.850;2023-07-29T07:40:21;9.80;;;7.37;;
53391;SDS011;41667;51.922;8.850;2023-07-29T07:42:46;11.82;;;8.43;;
53391;SDS011;41667;51.922;8.850;2023-07-29T07:45:12;14.75;;;10.13;;
53391;SDS011;41667;51.922;8.850;2023-07-29T07:47:37;12.83;;;9.27;;
53391;SDS011;41667;51.922;8.850;2023-07-29T07:50:02;12.97;;;9.40;;
53391;SDS011;41667;51.922;8.850;2023-07-29T07:52:27;14.30;;;9.25;;
53391;SDS011;41667;51.922;8.850;2023-07-29T07:54:53;13.50;;;8.52;;
53391;SDS011;41667;51.922;8.850;2023-07-29T07:57:19;16.52;;;9.15;;
53391;SDS011;41667;51.922;8.850;2023-07-29T07:59:44;12.30;;;8.10;;
53391;SDS011;41667;51.922;8.850;2023-07-29T08:02:10;12.50;;;9.13;;
53391;SDS011;41667;51.922;8.850;2023-07-29T08:04:35;12.85;;;8.77;;
53391;SDS011;41667;51.922;8.850;2023-07-29T08:07:01;14.77;;;9.85;;
53391;SDS011;41667;51.922;8.850;2023-07-29T08:09:26;12.67;;;10.00;;
53391;SDS011;41667;51.922;8.850;2023-07-29T08:11:51;14.55;;;9.98;;
53391;SDS011;41667;51.922;8.850;2023-07-29T08:14:16;13.85;;;9.98;;
53391;SDS011;41667;51.922;8.850;2023-07-29T08:16:41;14.40;;;10.30;;
53391;SDS011;41667;51.922;8.850;2023-07-29T08:19:06;14.52;;;8.85;;
53391;SDS011;41667;51.922;8.850;2023-07-29T08:21:34;13.38;;;9.88;;
53391;SDS011;41667;51.922;8.850;2023-07-29T08:23:59;15.05;;;10.27;;
53391;SDS011;41667;51.922;8.850;2023-07-29T08:26:24;12.33;;;10.20;;
53391;SDS011;41667;51.922;8.850;2023-07-29T08:28:50;14.57;;;10.10;;
53391;SDS011;41667;51.922;8.850;2023-07-29T08:31:15;15.52;;;10.57;;
53391;SDS011;41667;51.922;8.850;2023-07-29T08:33:40;12.18;;;8.88;;
53391;SDS011;41667;51.922;8.850;2023-07-29T08:36:05;14.53;;;9.67;;
53391;SDS011;41667;51.922;8.850;2023-07-29T08:38:30;12.47;;;8.73;;
53391;SDS011;41667;51.922;8.850;2023-07-29T08:43:33;12.15;;;8.25;;
53391;SDS011;41667;51.922;8.850;2023-07-29T08:45:59;7.88;;;6.72;;
53391;SDS011;41667;51.922;8.850;2023-07-29T08:48:43;7.60;;;6.78;;
53391;SDS011;41667;51.922;8.850;2023-07-29T08:51:08;7.80;;;6.20;;
53391;SDS011;41667;51.922;8.850;2023-07-29T08:53:34;7.13;;;6.40;;
53391;SDS011;41667;51.922;8.850;2023-07-29T08:55:59;8.93;;;6.90;;
53391;SDS011;41667;51.922;8.850;2023-07-29T08:58:25;6.95;;;6.13;;
53391;SDS011;41667;51.922;8.850;2023-07-29T09:00:51;6.97;;;6.28;;
53391;SDS011;41667;51.922;8.850;2023-07-29T09:03:16;7.18;;;6.30;;
53391;SDS011;41667;51.922;8.850;2023-07-29T09:05:41;7.13;;;6.43;;
53391;SDS011;41667;51.922;8.850;2023-07-29T09:08:06;8.40;;;6.20;;
53391;SDS011;41667;51.922;8.850;2023-07-29T09:10:35;7.13;;;6.43;;
53391;SDS011;41667;51.922;8.850;2023-07-29T09:13:00;7.85;;;6.05;;
53391;SDS011;41667;51.922;8.850;2023-07-29T09:15:32;8.48;;;6.85;;
53391;SDS011;41667;51.922;8.850;2023-07-29T09:17:58;7.15;;;6.45;;
53391;SDS011;41667;51.922;8.850;2023-07-29T09:20:24;6.90;;;6.18;;
53391;SDS011;41667;51.922;8.850;2023-07-29T09:22:49;6.57;;;5.97;;
53391;SDS011;41667;51.922;8.850;2023-07-29T09:25:14;6.97;;;5.55;;
53391;SDS011;41667;51.922;8.850;2023-07-29T09:27:41;6.47;;;5.30;;
53391;SDS011;41667;51.922;8.850;2023-07-29T09:30:06;6.40;;;5.70;;
53391;SDS011;41667;51.922;8.850;2023-07-29T09:32:32;5.85;;;5.25;;
53391;SDS011;41667;51.922;8.850;2023-07-29T09:34:57;6.38;;;4.68;;
53391;SDS011;41667;51.922;8.850;2023-07-29T09:37:22;4.22;;;3.92;;
53391;SDS011;41667;51.922;8.850;2023-07-29T09:39:48;3.40;;;3.20;;
53391;SDS011;41667;51.922;8.850;2023-07-29T09:42:21;3.30;;;3.10;;
53391;SDS011;41667;51.922;8.850;2023-07-29T09:44:48;3.63;;;2.95;;
53391;SDS011;41667;51.922;8.850;2023-07-29T09:49:45;2.47;;;2.28;;
53391;SDS011;41667;51.922;8.850;2023-07-29T09:52:10;2.37;;;2.17;;
53391;SDS011;41667;51.922;8.850;2023-07-29T09:54:36;2.33;;;1.40;;
53391;SDS011;41667;51.922;8.850;2023-07-29T09:57:01;0.90;;;0.90;;
53391;SDS011;41667;51.922;8.850;2023-07-29T09:59:27;1.10;;;1.00;;
53391;SDS011;41667;51.922;8.850;2023-07-29T10:01:52;2.43;;;1.27;;
53391;SDS011;41667;51.922;8.850;2023-07-29T10:04:17;1.50;;;1.40;;
53391;SDS011;41667;51.922;8.850;2023-07-29T10:06:43;1.40;;;1.30;;
53391;SDS011;41667;51.922;8.850;2023-07-29T10:09:08;1.45;;;1.17;;
53391;SDS011;41667;51.922;8.850;2023-07-29T10:11:34;0.98;;;0.98;;
53391;SDS011;41667;51.922;8.850;2023-07-29T10:14:00;0.70;;;0.70;;
53391;SDS011;41667;51.922;8.850;2023-07-29T10:16:25;0.60;;;0.60;;
53391;SDS011;41667;51.922;8.850;2023-07-29T10:18:51;0.77;;;0.77;;
53391;SDS011;41667;51.922;8.850;2023-07-29T10:21:17;0.60;;;0.50;;
53391;SDS011;41667;51.922;8.850;2023-07-29T10:23:43;0.40;;;0.40;;
53391;SDS011;41667;51.922;8.850;2023-07-29T10:26:13;1.15;;;1.05;;
53391;SDS011;41667;51.922;8.850;2023-07-29T10:28:43;1.85;;;0.60;;
53391;SDS011;41667;51.922;8.850;2023-07-29T10:31:11;0.70;;;0.70;;
53391;SDS011;41667;51.922;8.850;2023-07-29T10:33:36;0.65;;;0.60;;
53391;SDS011;41667;51.922;8.850;2023-07-29T10:36:03;0.40;;;0.40;;
53391;SDS011;41667;51.922;8.850;2023-07-29T10:38:29;0.77;;;0.43;;
53391;SDS011;41667;51.922;8.850;2023-07-29T10:40:54;0.60;;;0.57;;
53391;SDS011;41667;51.922;8.850;2023-07-29T10:43:25;0.63;;;0.63;;
53391;SDS011;41667;51.922;8.850;2023-07-29T10:45:50;0.80;;;0.70;;
53391;SDS011;41667;51.922;8.850;2023-07-29T10:48:39;0.57;;;0.57;;
53391;SDS011;41667;51.922;8.850;2023-07-29T10:53:51;0.40;;;0.40;;
53391;SDS011;41667;51.922;8.850;2023-07-29T10:56:24;0.60;;;0.60;;
53391;SDS011;41667;51.922;8.850;2023-07-29T10:58:49;0.40;;;0.40;;
53391;SDS011;41667;51.922;8.850;2023-07-29T11:01:20;0.60;;;0.60;;
53391;SDS011;41667;51.922;8.850;2023-07-29T11:04:00;0.55;;;0.55;;
53391;SDS011;41667;51.922;8.850;2023-07-29T11:06:25;0.50;;;0.50;;
53391;SDS011;41667;51.922;8.850;2023-07-29T11:08:51;0.57;;;0.57;;
53391;SDS011;41667;51.922;8.850;2023-07-29T11:11:17;0.80;;;0.80;;
53391;SDS011;41667;51.922;8.850;2023-07-29T11:13:43;0.70;;;0.70;;
53391;SDS011;41667;51.922;8.850;2023-07-29T11:16:09;0.50;;;0.50;;
53391;SDS011;41667;51.922;8.850;2023-07-29T11:18:35;0.60;;;0.60;;
53391;SDS011;41667;51.922;8.850;2023-07-29T11:21:01;1.15;;;1.08;;
53391;SDS011;41667;51.922;8.850;2023-07-29T11:23:30;0.80;;;0.80;;
53391;SDS011;41667;51.922;8.850;2023-07-29T11:25:56;0.95;;;0.95;;
53391;SDS011;41667;51.922;8.850;2023-07-29T11:28:21;2.63;;;1.10;;
53391;SDS011;41667;51.922;8.850;2023-07-29T11:30:47;1.05;;;0.90;;
53391;SDS011;41667;51.922;8.850;2023-07-29T11:33:12;0.93;;;0.93;;
53391;SDS011;41667;51.922;8.850;2023-07-29T11:35:37;1.03;;;1.03;;
53391;SDS011;41667;51.922;8.850;2023-07-29T11:38:02;1.67;;;0.63;;
53391;SDS011;41667;51.922;8.850;2023-07-29T11:40:27;1.05;;;0.93;;
53391;SDS011;41667;51.922;8.850;2023-07-29T11:42:52;0.88;;;0.88;;
53391;SDS011;41667;51.922;8.850;2023-07-29T11:45:18;1.00;;;0.93;;
53391;SDS011;41667;51.922;8.850;2023-07-29T11:47:44;0.90;;;0.90;;
53391;SDS011;41667;51.922;8.850;2023-07-29T11:50:11;1.20;;;1.13;;
53391;SDS011;41667;51.922;8.850;2023-07-29T11:52:39;0.95;;;0.93;;
53391;SDS011;41667;51.922;8.850;2023-07-29T11:55:05;1.67;;;1.13;;
53391;SDS011;41667;51.922;8.850;2023-07-29T11:57:31;0.80;;;0.80;;
53391;SDS011;41667;51.922;8.850;2023-07-29T11:59:58;1.00;;;1.00;;
53391;SDS011;41667;51.922;8.850;2023-07-29T12:02:23;0.93;;;0.93;;
53391;SDS011;41667;51.922;8.850;2023-07-29T12:04:49;0.95;;;0.95;;
53391;SDS011;41667;51.922;8.850;2023-07-29T12:07:16;0.95;;;0.95;;
53391;SDS011;41667;51.922;8.850;2023-07-29T12:09:41;0.70;;;0.70;;
53391;SDS011;41667;51.922;8.850;2023-07-29T12:12:07;0.90;;;0.90;;
53391;SDS011;41667;51.922;8.850;2023-07-29T12:14:33;1.08;;;1.05;;
53391;SDS011;41667;51.922;8.850;2023-07-29T12:17:02;0.90;;;0.90;;
53391;SDS011;41667;51.922;8.850;2023-07-29T12:19:34;1.10;;;1.10;;
53391;SDS011;41667;51.922;8.850;2023-07-29T12:22:00;1.02;;;0.85;;
53391;SDS011;41667;51.922;8.850;2023-07-29T12:24:25;1.30;;;1.20;;
53391;SDS011;41667;51.922;8.850;2023-07-29T12:26:51;1.52;;;1.42;;
53391;SDS011;41667;51.922;8.850;2023-07-29T12:29:17;1.23;;;0.98;;
53391;SDS011;41667;51.922;8.850;2023-07-29T12:31:44;1.02;;;1.02;;
53391;SDS011;41667;51.922;8.850;2023-07-29T12:34:09;1.30;;;1.25;;
53391;SDS011;41667;51.922;8.850;2023-07-29T12:39:15;1.10;;;1.10;;
53391;SDS011;41667;51.922;8.850;2023-07-29T12:41:41;1.00;;;1.00;;
53391;SDS011;41667;51.922;8.850;2023-07-29T12:44:06;0.95;;;0.95;;
53391;SDS011;41667;51.922;8.850;2023-07-29T12:46:31;1.10;;;1.00;;
53391;SDS011;41667;51.922;8.850;2023-07-29T12:48:56;1.02;;;1.02;;
53391;SDS011;41667;51.922;8.850;2023-07-29T12:51:21;0.90;;;0.90;;
53391;SDS011;41667;51.922;8.850;2023-07-29T12:53:47;0.93;;;0.88;;
53391;SDS011;41667;51.922;8.850;2023-07-29T12:56:12;1.10;;;1.10;;
53391;SDS011;41667;51.922;8.850;2023-07-29T12:58:37;1.10;;;1.10;;
53391;SDS011;41667;51.922;8.850;2023-07-29T13:01:02;1.23;;;0.93;;
53391;SDS011;41667;51.922;8.850;2023-07-29T13:03:27;0.93;;;0.93;;
53391;SDS011;41667;51.922;8.850;2023-07-29T13:05:53;1.25;;;1.25;;
53391;SDS011;41667;51.922;8.850;2023-07-29T13:08:19;1.00;;;1.00;;
53391;SDS011;41667;51.922;8.850;2023-07-29T13:10:44;1.10;;;1.10;;
53391;SDS011;41667;51.922;8.850;2023-07-29T13:13:09;1.45;;;1.35;;
53391;SDS011;41667;51.922;8.850;2023-07-29T13:15:34;1.20;;;1.20;;
53391;SDS011;41667;51.922;8.850;2023-07-29T13:17:59;1.60;;;1.50;;
53391;SDS011;41667;51.922;8.850;2023-07-29T13:20:24;1.30;;;1.20;;
53391;SDS011;41667;51.922;8.850;2023-07-29T13:22:50;1.73;;;1.15;;
53391;SDS011;41667;51.922;8.850;2023-07-29T13:25:15;1.17;;;1.17;;
53391;SDS011;41667;51.922;8.850;2023-07-29T13:27:40;1.20;;;1.20;;
53391;SDS011;41667;51.922;8.850;2023-07-29T13:30:05;1.95;;;1.55;;
53391;SDS011;41667;51.922;8.850;2023-07-29T13:32:31;2.22;;;1.15;;
53391;SDS011;41667;51.922;8.850;2023-07-29T13:34:56;2.83;;;1.50;;
53391;SDS011;41667;51.922;8.850;2023-07-29T13:37:21;1.60;;;1.60;;
53391;SDS011;41667;51.922;8.850;2023-07-29T13:39:46;1.70;;;1.60;;
53391;SDS011;41667;51.922;8.850;2023-07-29T13:42:12;1.50;;;1.40;;
53391;SDS011;41667;51.922;8.850;2023-07-29T13:44:37;2.37;;;1.60;;
53391;SDS011;41667;51.922;8.850;2023-07-29T13:47:02;1.40;;;1.40;;
53391;SDS011;41667;51.922;8.850;2023-07-29T13:49:27;1.90;;;1.80;;
53391;SDS011;41667;51.922;8.850;2023-07-29T13:51:52;1.50;;;1.42;;
53391;SDS011;41667;51.922;8.850;2023-07-29T13:54:17;1.65;;;1.50;;
53391;SDS011;41667;51.922;8.850;2023-07-29T13:56:42;1.90;;;1.80;;
53391;SDS011;41667;51.922;8.850;2023-07-29T13:59:08;1.80;;;1.70;;
53391;SDS011;41667;51.922;8.850;2023-07-29T14:01:33;1.70;;;1.60;;
53391;SDS011;41667;51.922;8.850;2023-07-29T14:03:58;1.40;;;1.40;;
53391;SDS011;41667;51.922;8.850;2023-07-29T14:06:23;1.48;;;1.38;;
53391;SDS011;41667;51.922;8.850;2023-07-29T14:08:48;1.50;;;1.40;;
53391;SDS011;41667;51.922;8.850;2023-07-29T14:11:13;1.73;;;1.63;;
53391;SDS011;41667;51.922;8.850;2023-07-29T14:13:39;1.58;;;1.50;;
53391;SDS011;41667;51.922;8.850;2023-07-29T14:16:04;1.73;;;1.63;;
53391;SDS011;41667;51.922;8.850;2023-07-29T14:18:30;2.17;;;1.93;;
53391;SDS011;41667;51.922;8.850;2023-07-29T14:20:55;3.00;;;1.90;;
53391;SDS011;41667;51.922;8.850;2023-07-29T14:23:20;2.23;;;1.97;;
53391;SDS011;41667;51.922;8.850;2023-07-29T14:25:45;1.85;;;1.75;;
53391;SDS011;41667;51.922;8.850;2023-07-29T14:28:10;1.85;;;1.75;;
53391;SDS011;41667;51.922;8.850;2023-07-29T14:30:35;4.18;;;1.73;;
53391;SDS011;41667;51.922;8.850;2023-07-29T14:33:02;1.75;;;1.65;;
53391;SDS011;41667;51.922;8.850;2023-07-29T14:35:27;2.92;;;1.80;;
53391;SDS011;41667;51.922;8.850;2023-07-29T14:37:53;1.70;;;1.60;;
53391;SDS011;41667;51.922;8.850;2023-07-29T14:40:18;1.98;;;1.75;;
53391;SDS011;41667;51.922;8.850;2023-07-29T14:42:43;1.67;;;1.57;;
53391;SDS011;41667;51.922;8.850;2023-07-29T14:45:08;1.40;;;1.30;;
53391;SDS011;41667;51.922;8.850;2023-07-29T14:47:33;1.25;;;1.25;;
53391;SDS011;41667;51.922;8.850;2023-07-29T14:49:59;1.77;;;1.67;;
53391;SDS011;41667;51.922;8.850;2023-07-29T14:52:25;1.63;;;1.52;;
53391;SDS011;41667;51.922;8.850;2023-07-29T14:54:50;1.25;;;1.25;;